Impacts METAR Board INFO
IDs:

KBWI - Baltimore-Washington, MD, US

Updated at: 0645 UTC 19 Nov 2017
Potential Impact None Slight Moderate High
Time18/18Z 18/19Z 18/20Z 18/21Z 18/22Z 18/23Z 19/00Z 19/01Z 19/02Z 19/03Z 19/04Z 19/05Z 19/06Z
VIS10 10 10 10 10 10 10 10 10 10 10 10 7
CIG110 120 120 90 100 160 200 160 150 150 190 150 110
CoverOVCOVCOVCOVCOVCOVCOVCOVCOVCOVCOVCOVCOVC
FltCatVFRVFRVFRVFRVFRVFRVFRVFRVFRVFRVFRVFRVFR
WX-------------------------RA
WDir200210210200180170190190200210210210210
WSpd5 8 6 5 5 5 6 5 9 11 15 12 8
WGst-- -- -- -- -- -- -- -- 17 20 25 25 22
Raw hourly METARs
KBWI 181754Z 20005KT 10SM BKN110 OVC250 13/03 A2971 RMK AO2 SLP060 T01330028 10139 20028 58047
KBWI 181854Z 21008KT 10SM BKN120 BKN160 OVC250 15/03 A2967 RMK AO2 SLP047 T01500033
KBWI 181954Z 21006KT 10SM BKN120 OVC250 15/03 A2964 RMK AO2 SLP036 T01500033
KBWI 182054Z 20005KT 10SM BKN090 OVC110 14/04 A2963 RMK AO2 RAB09E40 SLP032 P0000 60000 T01390039 56028
KBWI 182154Z 18005KT 10SM BKN100 BKN110 OVC250 13/05 A2959 RMK AO2 RAB07E37 SLP021 P0000 T01280050
KBWI 182254Z 17005KT 10SM SCT100 OVC160 13/05 A2957 RMK AO2 SLP014 T01280050
KBWI 182354Z 19006KT 10SM SCT180 OVC200 13/05 A2953 RMK AO2 SLP001 60000 T01330050 10150 20128 58030
KBWI 190054Z 19005KT 10SM FEW130 BKN160 OVC200 14/07 A2952 RMK AO2 SLP995 T01440067
KBWI 190154Z 20009G17KT 10SM SCT130 OVC150 16/08 A2949 RMK AO2 RAB0058E07 SLP985 P0000 T01560078
KBWI 190254Z 21011G20KT 10SM FEW100 FEW120 OVC150 16/09 A2945 RMK AO2 PK WND 20026/0207 SLP970 60000 T01610089 58030
KBWI 190354Z 21015G25KT 10SM FEW110 SCT160 OVC190 17/09 A2941 RMK AO2 PK WND 20027/0320 SLP959 T01670094
KBWI 190454Z 21012G25KT 10SM SCT100 BKN150 OVC190 17/10 A2939 RMK AO2 PK WND 21027/0417 SLP952 T01720100 401721011
KBWI 190554Z 21008G22KT 7SM -RA FEW070 BKN110 OVC150 16/12 A2937 RMK AO2 RAB18 SLP945 P0000 60000 T01610117 10172 20133 56025